Liguria — IRKJ — position and weather

sailwx.info

Track history (hours):
 
Tides and Currents Weather Stations Pressure Air Temp Water Temp Dewpoint Dewpoint Depression Visibility Wind Speed Wind Dir Waves Ship Positions

Liguria

Last reported at 2015-Jan-25 11:33 UTC. Time now 2015-Jan-25 12:15 UTC.
Position N 44°18' E 008°29'.

Length 30 m.

Type: Tug. MMSI: 247228500.

Date/timePositionNaut miles runAvg speedWind from/ knotsBaromVisibWave heightAir tempDewpointWater temp
2015-Jan-25 11:33N 44°18' E 008°29'0 0.4
2015-Jan-25 10:33N 44°19' E 008°30'0 0.2
2015-Jan-25 08:21N 44°18' E 008°29'0 0.0
2015-Jan-25 07:15N 44°18' E 008°29'2 3.3
2015-Jan-25 06:30N 44°16' E 008°28'2 1.5
2015-Jan-25 05:30N 44°17' E 008°29'1 0.1
2015-Jan-24 11:32N 44°18' E 008°29'0 0.0
2015-Jan-24 10:17N 44°18' E 008°29'0 0.0
2015-Jan-24 08:17N 44°18' E 008°29'0 0.0
2015-Jan-24 07:29N 44°18' E 008°29'0 0.0
2015-Jan-24 06:23N 44°18' E 008°29'0 0.0
2015-Jan-24 05:17N 44°18' E 008°29'0 0.0
2015-Jan-24 04:17N 44°18' E 008°29'0 0.0
2015-Jan-24 03:32N 44°18' E 008°29'0 0.0
2015-Jan-24 02:32N 44°18' E 008°29'0 0.0
2015-Jan-24 01:32N 44°18' E 008°29'0 0.0
2015-Jan-24 00:23N 44°18' E 008°29'0 0.0
2015-Jan-23 23:29N 44°18' E 008°29'0 0.0
2015-Jan-23 12:21N 44°18' E 008°29'0 0.0
2015-Jan-23 11:30N 44°18' E 008°29'0 0.0
2015-Jan-23 10:27N 44°18' E 008°29'0 0.0
2015-Jan-23 09:15N 44°18' E 008°29'0 0.0
2015-Jan-23 07:33N 44°18' E 008°29'1 0.6
2015-Jan-23 06:33N 44°19' E 008°30'0 0.2
2015-Jan-23 05:17N 44°19' E 008°30'0 0.1
2015-Jan-22 23:33N 44°19' E 008°30'0 0.0
2015-Jan-22 16:19N 44°19' E 008°30'0 0.0
2015-Jan-22 15:31N 44°19' E 008°30'2 2.1
2015-Jan-22 14:33N 44°17' E 008°28'2 1.2
2015-Jan-22 13:17N 44°18' E 008°29'0 0.0
2015-Jan-22 08:15N 44°18' E 008°29'0 0.0
2015-Jan-22 07:30N 44°18' E 008°29'0 0.0
2015-Jan-22 06:18N 44°18' E 008°29'1 0.8
2015-Jan-22 05:32N 44°19' E 008°30'1 0.9
2015-Jan-22 04:29N 44°19' E 008°31'1 1.0
2015-Jan-22 03:22N 44°18' E 008°29'0 0.0
2015-Jan-22 02:31N 44°18' E 008°29'3 2.8
2015-Jan-22 01:25N 44°16' E 008°27'3 4.0
2015-Jan-22 00:33N 44°19' E 008°30'0 0.4
2015-Jan-21 23:31N 44°18' E 008°29'0 0.0
2015-Jan-21 22:49N 44°18' E 008°29'0 0.0
2015-Jan-21 22:46N 44°18' E 008°29'0 0.0
2015-Jan-21 22:28N 44°18' E 008°29'0 0.0
2015-Jan-21 21:22N 44°18' E 008°29'0 0.0
2015-Jan-21 20:16N 44°18' E 008°29'0 0.0
2015-Jan-21 19:13N 44°18' E 008°29'0 0.0
2015-Jan-21 17:16N 44°18' E 008°29'0 0.0
2015-Jan-21 16:10N 44°18' E 008°29'0 0.0
2015-Jan-21 15:31N 44°18' E 008°29'0 0.0
2015-Jan-21 13:16N 44°18' E 008°29'0 0.0
2015-Jan-21 07:32N 44°18' E 008°29'2 1.6
2015-Jan-21 06:33N 44°17' E 008°28'2 1.5
2015-Jan-21 05:30N 44°19' E 008°29'0 0.0
2015-Jan-20 19:33N 44°18' E 008°29'0 0.3
2015-Jan-20 18:33N 44°19' E 008°30'0 0.3
2015-Jan-20 17:30N 44°18' E 008°29'1 0.6
2015-Jan-20 16:17N 44°19' E 008°30'4 5.0
2015-Jan-20 15:33N 44°16' E 008°27'0 0.0
2015-Jan-20 14:33N 44°16' E 008°27'0 0.0
2015-Jan-20 13:34N 44°16' E 008°27'0 0.0
2015-Jan-20 12:33N 44°16' E 008°27'0 0.3
2015-Jan-20 11:33N 44°16' E 008°27'0 0.3
2015-Jan-20 10:33N 44°16' E 008°27'0 0.0
2015-Jan-20 09:26N 44°16' E 008°27'0 0.0
2015-Jan-20 08:33N 44°16' E 008°27'0 0.0
2015-Jan-20 07:33N 44°16' E 008°27'0 0.2
2015-Jan-20 06:33N 44°16' E 008°27'3 3.0
2015-Jan-20 05:33N 44°18' E 008°29'0 0.0
2015-Jan-19 22:26N 44°18' E 008°29'0 0.0
2015-Jan-19 21:23N 44°18' E 008°29'0 0.0
2015-Jan-19 20:32N 44°18' E 008°29'0 0.0
2015-Jan-19 19:32N 44°18' E 008°29'0 0.0
2015-Jan-19 16:28N 44°18' E 008°29'0 0.0
2015-Jan-19 15:31N 44°18' E 008°29'0 0.0
2015-Jan-19 14:28N 44°18' E 008°29'0 0.0
2015-Jan-19 13:31N 44°18' E 008°29'0 0.0
2015-Jan-19 12:25N 44°18' E 008°29'0 0.0
2015-Jan-19 07:25N 44°18' E 008°29'0 0.0
2015-Jan-19 06:31N 44°18' E 008°29'0 0.0
2015-Jan-19 04:13N 44°18' E 008°29'0 0.0
2015-Jan-18 19:06N 44°18' E 008°29'0 0.0
2015-Jan-18 18:33N 44°18' E 008°29'0 0.0
2015-Jan-18 16:15N 44°18' E 008°29'0 0.0
2015-Jan-18 15:18N 44°18' E 008°29'0 0.0
2015-Jan-18 14:33N 44°18' E 008°29'0 0.0
2015-Jan-18 13:15N 44°18' E 008°29'0 0.0
2015-Jan-18 11:09N 44°18' E 008°29'2 1.2
2015-Jan-18 09:23N 44°17' E 008°28'1 1.0
2015-Jan-18 08:32N 44°16' E 008°28'3 2.5
2015-Jan-18 07:28N 44°18' E 008°29'0 0.0
2015-Jan-18 06:13N 44°18' E 008°29'0 0.0
2015-Jan-18 05:25N 44°18' E 008°29'0 0.0
2015-Jan-18 04:16N 44°18' E 008°29'0 0.0
2015-Jan-17 13:17N 44°18' E 008°29'0 0.0
2015-Jan-17 11:29N 44°18' E 008°29'0 0.0
2015-Jan-17 10:17N 44°18' E 008°29'0 0.0
2015-Jan-17 08:05N 44°18' E 008°29'0 0.0
2015-Jan-17 07:23N 44°18' E 008°29'0 0.0
2015-Jan-17 05:17N 44°18' E 008°29'0 0.0
2015-Jan-16 14:25N 44°18' E 008°29'0 0.0
2015-Jan-16 13:16N 44°18' E 008°29'0 0.0
2015-Jan-16 11:31N 44°18' E 008°29'0 0.0
2015-Jan-16 10:31N 44°18' E 008°29'0 0.0
2015-Jan-16 07:31N 44°18' E 008°29'0 0.0
2015-Jan-16 06:31N 44°18' E 008°29'0 0.0
2015-Jan-16 05:19N 44°18' E 008°29'  
Track history (hours):
 
Tides and Currents Weather Stations Pressure Air Temp Water Temp Dewpoint Dewpoint Depression Visibility Wind Speed Wind Dir Waves Ship Positions

Liguria

Last reported at 2015-Jan-25 11:33 UTC. Time now 2015-Jan-25 12:15 UTC.
Position N 44°18' E 008°29'.

Length 30 m.

Type: Tug. MMSI: 247228500.

Date/timePositionNaut miles runAvg speedWind from/ knotsBaromVisibWave heightAir tempDewpointWater temp
2015-Jan-25 11:33N 44°18' E 008°29'0 0.4
2015-Jan-25 10:33N 44°19' E 008°30'0 0.2
2015-Jan-25 08:21N 44°18' E 008°29'0 0.0
2015-Jan-25 07:15N 44°18' E 008°29'2 3.3
2015-Jan-25 06:30N 44°16' E 008°28'2 1.5
2015-Jan-25 05:30N 44°17' E 008°29'1 0.1
2015-Jan-24 11:32N 44°18' E 008°29'0 0.0
2015-Jan-24 10:17N 44°18' E 008°29'0 0.0
2015-Jan-24 08:17N 44°18' E 008°29'0 0.0
2015-Jan-24 07:29N 44°18' E 008°29'0 0.0
2015-Jan-24 06:23N 44°18' E 008°29'0 0.0
2015-Jan-24 05:17N 44°18' E 008°29'0 0.0
2015-Jan-24 04:17N 44°18' E 008°29'0 0.0
2015-Jan-24 03:32N 44°18' E 008°29'0 0.0
2015-Jan-24 02:32N 44°18' E 008°29'0 0.0
2015-Jan-24 01:32N 44°18' E 008°29'0 0.0
2015-Jan-24 00:23N 44°18' E 008°29'0 0.0
2015-Jan-23 23:29N 44°18' E 008°29'0 0.0
2015-Jan-23 12:21N 44°18' E 008°29'0 0.0
2015-Jan-23 11:30N 44°18' E 008°29'0 0.0
2015-Jan-23 10:27N 44°18' E 008°29'0 0.0
2015-Jan-23 09:15N 44°18' E 008°29'0 0.0
2015-Jan-23 07:33N 44°18' E 008°29'1 0.6
2015-Jan-23 06:33N 44°19' E 008°30'0 0.2
2015-Jan-23 05:17N 44°19' E 008°30'0 0.1
2015-Jan-22 23:33N 44°19' E 008°30'0 0.0
2015-Jan-22 16:19N 44°19' E 008°30'0 0.0
2015-Jan-22 15:31N 44°19' E 008°30'2 2.1
2015-Jan-22 14:33N 44°17' E 008°28'2 1.2
2015-Jan-22 13:17N 44°18' E 008°29'0 0.0
2015-Jan-22 08:15N 44°18' E 008°29'0 0.0
2015-Jan-22 07:30N 44°18' E 008°29'0 0.0
2015-Jan-22 06:18N 44°18' E 008°29'1 0.8
2015-Jan-22 05:32N 44°19' E 008°30'1 0.9
2015-Jan-22 04:29N 44°19' E 008°31'1 1.0
2015-Jan-22 03:22N 44°18' E 008°29'0 0.0
2015-Jan-22 02:31N 44°18' E 008°29'3 2.8
2015-Jan-22 01:25N 44°16' E 008°27'3 4.0
2015-Jan-22 00:33N 44°19' E 008°30'0 0.4
2015-Jan-21 23:31N 44°18' E 008°29'0 0.0
2015-Jan-21 22:49N 44°18' E 008°29'0 0.0
2015-Jan-21 22:46N 44°18' E 008°29'0 0.0
2015-Jan-21 22:28N 44°18' E 008°29'0 0.0
2015-Jan-21 21:22N 44°18' E 008°29'0 0.0
2015-Jan-21 20:16N 44°18' E 008°29'0 0.0
2015-Jan-21 19:13N 44°18' E 008°29'0 0.0
2015-Jan-21 17:16N 44°18' E 008°29'0 0.0
2015-Jan-21 16:10N 44°18' E 008°29'0 0.0
2015-Jan-21 15:31N 44°18' E 008°29'0 0.0
2015-Jan-21 13:16N 44°18' E 008°29'0 0.0
2015-Jan-21 07:32N 44°18' E 008°29'2 1.6
2015-Jan-21 06:33N 44°17' E 008°28'2 1.5
2015-Jan-21 05:30N 44°19' E 008°29'0 0.0
2015-Jan-20 19:33N 44°18' E 008°29'0 0.3
2015-Jan-20 18:33N 44°19' E 008°30'0 0.3
2015-Jan-20 17:30N 44°18' E 008°29'1 0.6
2015-Jan-20 16:17N 44°19' E 008°30'4 5.0
2015-Jan-20 15:33N 44°16' E 008°27'0 0.0
2015-Jan-20 14:33N 44°16' E 008°27'0 0.0
2015-Jan-20 13:34N 44°16' E 008°27'0 0.0
2015-Jan-20 12:33N 44°16' E 008°27'0 0.3
2015-Jan-20 11:33N 44°16' E 008°27'0 0.3
2015-Jan-20 10:33N 44°16' E 008°27'0 0.0
2015-Jan-20 09:26N 44°16' E 008°27'0 0.0
2015-Jan-20 08:33N 44°16' E 008°27'0 0.0
2015-Jan-20 07:33N 44°16' E 008°27'0 0.2
2015-Jan-20 06:33N 44°16' E 008°27'3 3.0
2015-Jan-20 05:33N 44°18' E 008°29'0 0.0
2015-Jan-19 22:26N 44°18' E 008°29'0 0.0
2015-Jan-19 21:23N 44°18' E 008°29'0 0.0
2015-Jan-19 20:32N 44°18' E 008°29'0 0.0
2015-Jan-19 19:32N 44°18' E 008°29'0 0.0
2015-Jan-19 16:28N 44°18' E 008°29'0 0.0
2015-Jan-19 15:31N 44°18' E 008°29'0 0.0
2015-Jan-19 14:28N 44°18' E 008°29'0 0.0
2015-Jan-19 13:31N 44°18' E 008°29'0 0.0
2015-Jan-19 12:25N 44°18' E 008°29'0 0.0
2015-Jan-19 07:25N 44°18' E 008°29'0 0.0
2015-Jan-19 06:31N 44°18' E 008°29'0 0.0
2015-Jan-19 04:13N 44°18' E 008°29'0 0.0
2015-Jan-18 19:06N 44°18' E 008°29'0 0.0
2015-Jan-18 18:33N 44°18' E 008°29'0 0.0
2015-Jan-18 16:15N 44°18' E 008°29'0 0.0
2015-Jan-18 15:18N 44°18' E 008°29'0 0.0
2015-Jan-18 14:33N 44°18' E 008°29'0 0.0
2015-Jan-18 13:15N 44°18' E 008°29'0 0.0
2015-Jan-18 11:09N 44°18' E 008°29'2 1.2
2015-Jan-18 09:23N 44°17' E 008°28'1 1.0
2015-Jan-18 08:32N 44°16' E 008°28'3 2.5
2015-Jan-18 07:28N 44°18' E 008°29'0 0.0
2015-Jan-18 06:13N 44°18' E 008°29'0 0.0
2015-Jan-18 05:25N 44°18' E 008°29'0 0.0
2015-Jan-18 04:16N 44°18' E 008°29'0 0.0
2015-Jan-17 13:17N 44°18' E 008°29'0 0.0
2015-Jan-17 11:29N 44°18' E 008°29'0 0.0
2015-Jan-17 10:17N 44°18' E 008°29'0 0.0
2015-Jan-17 08:05N 44°18' E 008°29'0 0.0
2015-Jan-17 07:23N 44°18' E 008°29'0 0.0
2015-Jan-17 05:17N 44°18' E 008°29'0 0.0
2015-Jan-16 14:25N 44°18' E 008°29'0 0.0
2015-Jan-16 13:16N 44°18' E 008°29'0 0.0
2015-Jan-16 11:31N 44°18' E 008°29'0 0.0
2015-Jan-16 10:31N 44°18' E 008°29'0 0.0
2015-Jan-16 07:31N 44°18' E 008°29'0 0.0
2015-Jan-16 06:31N 44°18' E 008°29'0 0.0
2015-Jan-16 05:19N 44°18' E 008°29'  

Dump ship's entire track history